Time;durP1;ratioP1;P1;durP2;ratioP2;P2;SDS_P1;SDS_P2;PMS_P1;PMS_P2;Temp;Humidity;BMP_temperature;BMP_pressure;BME280_temperature;BME280_humidity;BME280_pressure;Samples;Min_cycle;Max_cycle;Signal;HPM_P1;HPM_P2
2022/05/18 00:01:09;;;;;;;7.00;3.53;;;;;;;12.12;100.00;99331.63;5094119;28;20047;-63
2022/05/18 00:03:54;;;;;;;8.00;3.75;;;;;;;12.11;100.00;99329.97;5093832;28;20067;-63
2022/05/18 00:06:39;;;;;;;5.07;3.50;;;;;;;12.21;100.00;99338.06;5093780;28;20383;-64
2022/05/18 00:09:24;;;;;;;6.30;3.45;;;;;;;12.07;100.00;99329.28;5093680;28;20043;-63
2022/05/18 00:12:10;;;;;;;6.65;3.95;;;;;;;12.17;100.00;99335.66;5095044;28;20040;-64
2022/05/18 00:14:56;;;;;;;10.60;4.05;;;;;;;12.39;100.00;99341.22;5093600;28;20076;-64
2022/05/18 00:17:41;;;;;;;8.32;4.05;;;;;;;12.24;99.02;99338.69;5079666;28;20119;-64
2022/05/18 00:20:27;;;;;;;6.60;3.45;;;;;;;12.84;100.00;99348.75;5094765;28;20386;-64
2022/05/18 00:23:13;;;;;;;7.07;4.20;;;;;;;12.90;98.94;99350.94;5094941;28;20048;-63
2022/05/18 00:25:58;;;;;;;6.97;4.00;;;;;;;12.83;99.25;99354.09;5079407;28;20032;-63
2022/05/18 00:28:43;;;;;;;6.13;4.10;;;;;;;12.63;99.48;99351.06;5095131;28;20439;-63
2022/05/18 00:31:29;;;;;;;7.55;4.03;;;;;;;12.69;99.28;99348.84;5093048;28;20044;-63
2022/05/18 00:34:14;;;;;;;9.27;4.68;;;;;;;12.36;98.26;99351.94;5093225;28;20036;-63
2022/05/18 00:36:59;;;;;;;6.63;4.15;;;;;;;12.77;97.43;99353.56;5094709;28;20455;-64
2022/05/18 00:39:43;;;;;;;8.25;4.13;;;;;;;12.48;100.00;99351.16;5080382;28;20044;-63
2022/05/18 00:42:28;;;;;;;7.70;4.20;;;;;;;12.68;100.00;99346.31;5099530;28;20036;-63
2022/05/18 00:45:17;;;;;;;8.05;4.80;;;;;;;12.44;97.59;99353.13;5065486;28;20048;-63
2022/05/18 00:48:02;;;;;;;7.32;4.47;;;;;;;12.64;98.44;99371.13;5093396;28;20047;-64
2022/05/18 00:50:47;;;;;;;7.15;4.40;;;;;;;12.85;96.53;99371.44;5093576;28;20092;-63
2022/05/18 00:53:45;;;;;;;12.35;5.10;;;;;;;12.70;96.66;99375.97;5074566;28;20132;-64
2022/05/18 00:56:38;;;;;;;6.43;4.05;;;;;;;12.72;100.00;99381.97;5087162;28;20040;-63
2022/05/18 00:59:40;;;;;;;7.78;4.53;;;;;;;12.96;100.00;99370.69;5087153;28;20037;-64
2022/05/18 01:02:28;;;;;;;6.93;3.58;;;;;;;13.18;100.00;99377.97;5072362;28;20180;-64
2022/05/18 01:05:19;;;;;;;9.30;4.25;;;;;;;12.71;99.27;99377.66;5072921;28;20419;-63
2022/05/18 01:08:04;;;;;;;4.53;3.80;;;;;;;12.83;100.00;99381.22;5073818;28;20059;-64
2022/05/18 01:10:49;;;;;;;5.53;4.38;;;;;;;12.67;96.05;99390.16;5074183;28;20045;-68
2022/05/18 01:13:35;;;;;;;10.68;5.28;;;;;;;12.50;97.70;99393.09;5073663;28;20566;-64
2022/05/18 01:16:21;;;;;;;9.00;4.55;;;;;;;12.35;97.20;99387.06;5072891;28;20040;-65
2022/05/18 01:19:09;;;;;;;7.05;3.90;;;;;;;12.65;100.00;99386.78;5073647;28;20048;-64
2022/05/18 01:22:04;;;;;;;8.43;4.50;;;;;;;12.65;97.87;99396.44;5072365;28;20037;-63
2022/05/18 01:25:18;;;;;;;10.23;4.95;;;;;;;12.07;98.25;99397.56;5072693;28;20037;-63
2022/05/18 01:28:04;;;;;;;8.45;4.32;;;;;;;12.23;99.55;99397.44;5072841;28;20051;-63
2022/05/18 01:30:55;;;;;;;4.72;4.20;;;;;;;12.05;98.30;99399.44;5072247;28;20032;-63
2022/05/18 01:33:44;;;;;;;7.32;4.53;;;;;;;11.72;99.16;99400.66;5073161;28;20071;-64
2022/05/18 01:36:28;;;;;;;6.43;3.90;;;;;;;12.16;100.00;99404.88;5072990;28;20041;-64
2022/05/18 01:39:22;;;;;;;6.47;4.07;;;;;;;12.28;98.54;99405.00;5072158;28;20032;-64
2022/05/18 01:42:06;;;;;;;5.68;3.90;;;;;;;12.16;100.00;99396.13;5072171;28;20396;-63
2022/05/18 01:44:51;;;;;;;7.10;4.40;;;;;;;12.17;98.54;99403.94;5073344;28;20086;-62
2022/05/18 01:47:38;;;;;;;10.02;4.70;;;;;;;12.25;96.94;99406.06;5073250;28;20452;-62
2022/05/18 01:50:27;;;;;;;8.27;4.15;;;;;;;11.94;98.83;99406.25;5072953;28;20032;-64
2022/05/18 01:53:11;;;;;;;6.90;4.30;;;;;;;11.84;97.54;99415.63;5092244;28;20061;-63
2022/05/18 01:55:56;;;;;;;6.68;3.95;;;;;;;11.60;100.00;99418.88;5093219;28;20036;-63
2022/05/18 01:58:41;;;;;;;8.82;4.13;;;;;;;11.72;97.22;99419.88;5093097;28;20415;-63
2022/05/18 02:01:26;;;;;;;9.00;4.47;;;;;;;11.91;98.63;99423.97;5093238;28;20039;-63
2022/05/18 02:04:13;;;;;;;7.22;3.80;;;;;;;12.16;99.04;99432.91;5092686;28;20043;-63
2022/05/18 02:07:01;;;;;;;8.98;4.20;;;;;;;12.34;100.00;99437.94;5090707;28;20118;-63
2022/05/18 02:09:46;;;;;;;5.72;3.83;;;;;;;12.34;98.70;99440.56;5091932;28;20063;-64
2022/05/18 02:12:31;;;;;;;5.55;4.07;;;;;;;11.83;98.10;99427.91;5076239;28;20567;-64
2022/05/18 02:15:16;;;;;;;7.90;4.22;;;;;;;12.06;97.86;99441.34;5091061;28;20395;-65
2022/05/18 02:18:01;;;;;;;7.57;4.05;;;;;;;12.17;100.00;99439.84;5078206;28;20044;-63
2022/05/18 02:20:46;;;;;;;7.97;4.68;;;;;;;11.93;96.54;99443.09;5095900;28;20043;-63
2022/05/18 02:23:31;;;;;;;8.20;4.32;;;;;;;11.82;100.00;99441.13;5097056;28;20097;-63
2022/05/18 02:26:18;;;;;;;6.65;4.43;;;;;;;11.77;99.54;99453.69;5095932;28;20040;-63
2022/05/18 02:29:04;;;;;;;8.07;4.65;;;;;;;11.52;98.22;99455.25;5095890;28;20039;-63
2022/05/18 02:31:49;;;;;;;8.10;4.53;;;;;;;11.32;99.07;99450.28;5095636;28;20051;-63
2022/05/18 02:34:35;;;;;;;7.25;4.68;;;;;;;11.39;100.00;99449.91;5097132;28;20044;-64
2022/05/18 02:37:21;;;;;;;6.35;4.30;;;;;;;11.14;100.00;99454.84;5084156;28;20375;-64
2022/05/18 02:40:09;;;;;;;8.43;4.53;;;;;;;11.20;98.91;99443.13;5086937;28;20051;-64
2022/05/18 02:42:53;;;;;;;7.70;3.90;;;;;;;11.45;98.63;99450.38;5102706;28;20036;-65
2022/05/18 02:45:38;;;;;;;7.30;4.28;;;;;;;11.49;99.37;99447.56;5108010;28;20036;-63
2022/05/18 02:48:23;;;;;;;7.70;3.83;;;;;;;11.51;99.90;99445.66;5103830;28;20036;-65
2022/05/18 02:51:09;;;;;;;5.95;3.25;;;;;;;11.80;100.00;99445.66;5096484;28;20093;-63
2022/05/18 02:53:55;;;;;;;8.70;3.88;;;;;;;11.60;95.53;99455.63;5100119;28;20479;-64
2022/05/18 02:56:40;;;;;;;10.13;4.50;;;;;;;11.89;98.48;99450.31;5108415;28;20040;-64
2022/05/18 02:59:26;;;;;;;8.27;3.53;;;;;;;11.74;97.22;99459.13;5107038;28;20062;-64
2022/05/18 03:02:12;;;;;;;6.35;3.50;;;;;;;12.12;97.52;99453.28;5103105;28;20036;-63
2022/05/18 03:04:57;;;;;;;5.07;3.33;;;;;;;12.90;98.69;99473.69;5096493;28;20060;-63
2022/05/18 03:07:41;;;;;;;9.07;3.13;;;;;;;12.66;96.93;99467.34;5095103;28;20051;-64
2022/05/18 03:10:26;;;;;;;6.22;3.20;;;;;;;12.86;98.06;99477.47;5107696;28;20467;-64
2022/05/18 03:13:11;;;;;;;5.07;3.65;;;;;;;13.03;97.52;99479.81;5096757;28;20028;-65
2022/05/18 03:15:57;;;;;;;5.90;3.10;;;;;;;13.06;95.15;99482.22;5096864;28;20111;-64
2022/05/18 03:18:42;;;;;;;7.22;3.80;;;;;;;13.22;93.63;99486.44;5086549;28;20043;-64
2022/05/18 03:24:29;;;;;;;8.43;4.18;;;;;;;13.94;93.87;99499.97;5095708;28;20532;-64
2022/05/18 03:27:14;;;;;;;5.85;3.47;;;;;;;13.64;93.47;99506.47;5115007;28;20165;-65
2022/05/18 03:29:58;;;;;;;7.57;3.55;;;;;;;13.34;94.90;99505.81;5115391;28;20523;-65
2022/05/18 03:32:44;;;;;;;5.25;3.30;;;;;;;12.99;95.66;99511.69;5101077;28;20039;-64
2022/05/18 03:35:29;;;;;;;9.43;3.88;;;;;;;12.42;92.14;99517.91;5129354;27;20367;-64
2022/05/18 03:38:14;;;;;;;5.32;2.97;;;;;;;12.22;98.65;99526.25;5115190;28;20040;-63
2022/05/18 03:41:00;;;;;;;6.60;3.65;;;;;;;12.06;94.51;99521.94;5115781;28;20039;-63
2022/05/18 03:43:45;;;;;;;5.53;3.35;;;;;;;13.11;97.04;99526.63;5115733;28;20474;-64
2022/05/18 03:46:30;;;;;;;6.45;3.40;;;;;;;13.20;93.28;99526.97;5059623;28;20045;-64
2022/05/18 03:49:15;;;;;;;9.40;3.70;;;;;;;12.93;94.06;99536.59;5074034;28;20047;-64
2022/05/18 03:52:01;;;;;;;6.18;3.42;;;;;;;12.60;92.89;99530.81;5068838;28;20102;-63
2022/05/18 03:54:46;;;;;;;4.90;2.95;;;;;;;12.74;97.57;99542.22;5093884;28;20028;-65
2022/05/18 03:57:31;;;;;;;7.50;3.08;;;;;;;13.34;93.38;99540.03;5095185;28;20047;-65
2022/05/18 04:00:16;;;;;;;7.53;3.90;;;;;;;13.01;89.10;99542.19;5094266;28;20128;-64
2022/05/18 04:03:01;;;;;;;6.68;3.30;;;;;;;13.02;95.88;99553.56;5106213;28;20036;-64
2022/05/18 04:05:50;;;;;;;10.75;4.15;;;;;;;13.24;93.55;99549.47;5093372;28;20070;-66
2022/05/18 04:08:36;;;;;;;8.18;4.07;;;;;;;13.39;95.23;99550.22;5093530;28;20059;-66
2022/05/18 04:11:21;;;;;;;4.97;3.35;;;;;;;13.41;94.12;99551.84;5093199;28;20040;-65
2022/05/18 04:14:06;;;;;;;5.57;3.10;;;;;;;13.65;98.05;99555.53;5094700;28;20036;-64
2022/05/18 04:16:50;;;;;;;7.47;3.53;;;;;;;13.63;90.93;99553.00;5091596;28;20631;-65
2022/05/18 04:19:35;;;;;;;4.30;2.72;;;;;;;13.46;94.35;99562.03;5092655;28;20040;-64
2022/05/18 04:22:21;;;;;;;8.05;3.08;;;;;;;13.77;93.23;99564.38;5094132;28;20415;-65
2022/05/18 04:25:07;;;;;;;4.97;2.75;;;;;;;13.66;92.94;99563.31;5093694;28;20089;-64
2022/05/18 04:27:52;;;;;;;5.53;2.90;;;;;;;13.78;91.24;99573.97;5094268;28;20036;-64
2022/05/18 04:30:37;;;;;;;6.25;3.38;;;;;;;13.84;92.92;99578.78;5094800;28;20500;-64
2022/05/18 04:33:23;;;;;;;8.20;4.63;;;;;;;14.07;89.38;99591.31;5079378;28;20032;-65
2022/05/18 04:36:08;;;;;;;7.97;3.75;;;;;;;13.66;89.28;99596.72;5092902;28;20113;-62
2022/05/18 04:38:53;;;;;;;8.18;3.83;;;;;;;13.76;91.26;99596.91;5091749;28;20068;-63
2022/05/18 04:41:38;;;;;;;6.82;2.83;;;;;;;14.23;94.50;99606.91;5095955;28;20064;-62
2022/05/18 04:44:22;;;;;;;7.57;3.80;;;;;;;14.15;86.35;99623.25;5101167;28;20524;-63
2022/05/18 04:47:07;;;;;;;6.07;3.33;;;;;;;14.38;89.52;99613.69;5093519;28;20110;-64
2022/05/18 04:49:53;;;;;;;5.90;2.92;;;;;;;14.25;89.18;99623.41;5077777;28;20032;-63
2022/05/18 04:52:38;;;;;;;8.18;3.25;;;;;;;14.15;89.99;99631.97;5077743;28;20040;-62
2022/05/18 04:55:24;;;;;;;9.02;3.03;;;;;;;14.96;96.18;99638.66;5094067;28;20062;-63
2022/05/18 04:58:08;;;;;;;7.20;2.88;;;;;;;16.10;93.74;99624.91;5093032;28;20043;-61
2022/05/18 05:01:00;;;;;;;7.60;3.53;;;;;;;16.16;84.11;99634.16;5089729;28;20046;-63
2022/05/18 05:03:47;;;;;;;9.77;3.10;;;;;;;16.06;82.77;99636.66;5093872;28;20057;-63
2022/05/18 05:06:32;;;;;;;8.80;3.42;;;;;;;15.14;79.79;99654.94;5080715;28;20360;-62
2022/05/18 05:09:17;;;;;;;7.78;3.45;;;;;;;14.65;84.04;99649.59;5072691;28;20044;-64
2022/05/18 05:12:02;;;;;;;7.88;4.00;;;;;;;14.82;78.40;99663.38;5073507;28;20547;-62
2022/05/18 05:14:47;;;;;;;8.95;4.00;;;;;;;14.76;81.89;99658.53;5072432;28;20464;-63
2022/05/18 05:17:32;;;;;;;8.95;4.00;;;;;;;14.46;80.80;99659.78;5073570;28;20040;-62
2022/05/18 05:20:18;;;;;;;8.07;3.50;;;;;;;15.34;88.48;99664.97;5078829;28;20089;-65
2022/05/18 05:23:03;;;;;;;7.70;4.25;;;;;;;15.40;81.22;99669.78;5064362;28;20498;-63
2022/05/18 05:25:48;;;;;;;8.05;4.18;;;;;;;15.31;79.13;99681.03;5064866;28;20043;-61
2022/05/18 05:28:33;;;;;;;7.75;2.92;;;;;;;14.95;84.99;99678.34;5091232;28;20383;-64
2022/05/18 05:31:18;;;;;;;8.27;5.07;;;;;;;14.67;81.49;99681.13;5063081;28;20443;-66
2022/05/18 05:34:04;;;;;;;8.98;3.40;;;;;;;14.53;90.03;99679.47;5092574;28;20379;-65
2022/05/18 05:36:49;;;;;;;11.38;7.97;;;;;;;14.99;85.20;99692.97;5091495;28;20051;-64
2022/05/18 05:39:36;;;;;;;11.40;4.95;;;;;;;15.04;80.10;99696.13;5104993;28;20042;-65
2022/05/18 05:42:26;;;;;;;154.02;127.43;;;;;;;14.99;83.38;99693.84;5090981;28;20486;-64
2022/05/18 05:45:12;;;;;;;22.15;16.58;;;;;;;14.74;82.25;99708.75;5087218;28;20540;-64
2022/05/18 05:47:58;;;;;;;20.73;16.75;;;;;;;15.46;79.80;99716.84;5077588;28;20500;-65
2022/05/18 05:50:49;;;;;;;14.15;8.77;;;;;;;14.90;80.46;99716.44;5105650;28;20093;-62
2022/05/18 05:53:34;;;;;;;7.85;5.57;;;;;;;14.72;80.43;99717.72;5064675;28;20044;-63
2022/05/18 05:56:21;;;;;;;7.22;4.45;;;;;;;14.42;80.64;99719.78;5097219;28;20071;-63
2022/05/18 05:59:07;;;;;;;7.18;4.47;;;;;;;14.85;77.91;99730.91;5081962;28;20048;-64
2022/05/18 06:01:51;;;;;;;10.45;4.82;;;;;;;14.67;78.53;99731.25;5097613;28;20462;-62
2022/05/18 06:04:37;;;;;;;6.70;4.28;;;;;;;14.78;78.60;99733.09;5097078;28;20494;-62
2022/05/18 06:07:22;;;;;;;8.90;4.78;;;;;;;14.57;79.33;99731.03;5096304;28;20043;-63
2022/05/18 06:10:07;;;;;;;8.18;5.68;;;;;;;14.89;81.02;99741.13;5096201;28;20043;-62
2022/05/18 06:12:58;;;;;;;7.40;5.72;;;;;;;14.76;80.48;99735.84;5094729;28;20039;-62
2022/05/18 06:15:47;;;;;;;7.72;4.53;;;;;;;16.03;73.54;99739.16;5068368;28;20043;-61
2022/05/18 06:18:33;;;;;;;9.63;5.93;;;;;;;16.44;71.12;99744.84;5096194;28;20107;-63
2022/05/18 06:21:18;;;;;;;8.13;4.68;;;;;;;15.51;72.80;99754.31;5096911;28;20119;-64
2022/05/18 06:24:04;;;;;;;7.32;4.07;;;;;;;16.15;71.87;99759.34;5096575;28;20043;-62
2022/05/18 06:26:49;;;;;;;8.25;4.78;;;;;;;15.86;75.57;99767.66;5082468;28;20472;-62
2022/05/18 06:29:35;;;;;;;9.68;5.07;;;;;;;16.23;73.25;99761.41;5081989;28;20051;-63
2022/05/18 06:32:20;;;;;;;9.27;4.68;;;;;;;16.04;75.28;99762.81;5096170;28;20429;-62
2022/05/18 06:35:05;;;;;;;8.40;4.22;;;;;;;17.15;69.90;99764.06;5096773;28;20039;-63
2022/05/18 06:37:51;;;;;;;9.77;4.85;;;;;;;16.82;67.29;99771.88;5095401;28;20086;-63
2022/05/18 06:43:41;;;;;;;10.65;4.55;;;;;;;16.99;67.19;99775.81;5098503;28;20040;-62
2022/05/18 06:46:27;;;;;;;8.68;4.00;;;;;;;17.91;70.00;99791.47;5111076;28;20028;-62
2022/05/18 06:49:12;;;;;;;9.52;4.35;;;;;;;16.83;68.56;99800.88;5095363;28;20044;-62
2022/05/18 06:52:00;;;;;;;7.05;4.38;;;;;;;16.69;66.88;99804.59;5112092;28;20395;-61
2022/05/18 06:54:46;;;;;;;7.10;4.40;;;;;;;16.50;68.21;99795.44;5096409;28;20333;-62
2022/05/18 06:57:31;;;;;;;8.43;4.45;;;;;;;17.77;65.78;99805.88;5095384;28;20043;-62
2022/05/18 07:00:17;;;;;;;6.15;3.50;;;;;;;17.80;63.87;99802.97;5096319;28;20044;-62
2022/05/18 07:03:02;;;;;;;6.45;3.67;;;;;;;17.94;64.71;99810.63;5066953;28;20047;-61
2022/05/18 07:05:47;;;;;;;7.72;3.97;;;;;;;18.64;60.86;99816.41;5095881;28;20065;-62
2022/05/18 07:08:32;;;;;;;5.70;3.42;;;;;;;18.19;60.31;99816.56;5094924;28;20356;-62
2022/05/18 07:11:18;;;;;;;9.15;3.78;;;;;;;19.04;58.02;99818.25;5096080;28;20040;-62
2022/05/18 07:14:06;;;;;;;6.43;3.60;;;;;;;18.21;60.28;99813.78;5081450;28;20040;-62
2022/05/18 07:16:51;;;;;;;7.70;3.97;;;;;;;18.45;57.27;99826.78;5096247;28;20040;-62
2022/05/18 07:19:36;;;;;;;4.75;2.97;;;;;;;18.49;57.98;99821.19;5080810;28;20040;-62
2022/05/18 07:22:23;;;;;;;5.43;2.83;;;;;;;18.93;55.44;99819.16;5095237;28;20044;-62
2022/05/18 07:25:08;;;;;;;7.07;3.05;;;;;;;18.79;56.08;99820.38;5095640;28;20051;-61
2022/05/18 07:27:53;;;;;;;5.43;2.63;;;;;;;19.60;53.30;99831.09;5096025;28;20032;-63
2022/05/18 07:30:38;;;;;;;4.38;2.60;;;;;;;19.40;53.10;99825.78;5094660;28;20040;-62
2022/05/18 07:33:25;;;;;;;5.40;2.42;;;;;;;19.53;52.49;99830.81;5066259;28;20386;-62
2022/05/18 07:36:09;;;;;;;4.65;2.70;;;;;;;19.76;49.77;99825.25;5093011;28;20386;-61
2022/05/18 07:38:54;;;;;;;5.28;2.72;;;;;;;19.79;51.66;99834.75;5094155;28;20668;-63
2022/05/18 07:41:40;;;;;;;12.18;3.10;;;;;;;20.03;53.19;99834.34;5093278;28;20044;-62
2022/05/18 07:44:26;;;;;;;5.07;3.17;;;;;;;20.17;52.83;99841.06;5092066;28;20028;-61
2022/05/18 07:47:10;;;;;;;6.03;2.80;;;;;;;20.01;51.75;99844.25;5078427;28;20036;-62
2022/05/18 07:49:55;;;;;;;5.53;2.53;;;;;;;20.13;51.05;99837.00;5094897;28;20032;-69
2022/05/18 07:52:40;;;;;;;2.88;2.30;;;;;;;20.30;52.41;99839.94;5079397;28;20067;-61
2022/05/18 07:55:26;;;;;;;4.88;2.47;;;;;;;20.19;51.45;99835.59;5091188;28;20093;-63
2022/05/18 07:58:14;;;;;;;6.65;2.38;;;;;;;21.02;50.89;99838.63;5080144;28;20097;-61
2022/05/18 08:00:59;;;;;;;4.25;2.13;;;;;;;20.49;48.11;99840.88;5093598;28;20467;-63
2022/05/18 08:03:47;;;;;;;3.03;1.70;;;;;;;20.02;49.64;99848.63;5090869;28;20036;-62
2022/05/18 08:06:33;;;;;;;3.08;2.03;;;;;;;20.68;47.58;99848.78;5092959;28;20032;-50
2022/05/18 08:09:22;;;;;;;3.88;2.10;;;;;;;20.27;48.00;99846.34;5094923;28;20114;-62
2022/05/18 08:15:12;;;;;;;4.40;1.58;;;;;;;21.19;45.55;99852.97;5109594;28;20040;-62
2022/05/18 08:17:57;;;;;;;3.03;1.38;;;;;;;21.46;43.25;99845.09;5092606;28;20511;-62
2022/05/18 08:20:44;;;;;;;8.80;1.40;;;;;;;21.52;43.98;99847.16;5092176;28;20036;-63
2022/05/18 08:23:29;;;;;;;2.47;1.17;;;;;;;21.47;38.86;99852.94;5092426;28;20036;-62
2022/05/18 08:26:14;;;;;;;5.78;1.20;;;;;;;22.32;38.76;99853.56;5099260;28;20040;-63
2022/05/18 08:28:59;;;;;;;3.22;1.00;;;;;;;22.06;39.14;99857.03;5098675;28;20044;-64
2022/05/18 08:31:45;;;;;;;2.30;0.88;;;;;;;22.42;37.18;99856.13;5097193;28;20043;-62
2022/05/18 08:34:33;;;;;;;2.72;0.88;;;;;;;22.05;38.01;99858.00;5093514;28;20495;-64
2022/05/18 08:37:19;;;;;;;2.17;0.90;;;;;;;22.49;36.71;99857.16;5086653;28;20432;-62
2022/05/18 08:40:07;;;;;;;2.33;0.80;;;;;;;22.68;37.08;99863.34;5092299;28;20062;-62
2022/05/18 08:42:53;;;;;;;2.75;0.80;;;;;;;22.18;36.21;99862.94;5088554;28;20032;-62
2022/05/18 08:45:46;;;;;;;2.90;1.30;;;;;;;21.84;36.98;99869.84;5110342;28;20532;-63
2022/05/18 08:48:38;;;;;;;2.13;1.05;;;;;;;22.64;36.24;99870.81;5091167;28;20089;-70
2022/05/18 08:51:33;;;;;;;4.00;1.20;;;;;;;22.89;36.71;99862.94;5099894;28;20036;-65
2022/05/18 08:54:49;;;;;;;3.83;1.58;;;;;;;22.89;36.94;99864.78;5099027;28;20031;-59
2022/05/18 08:57:39;;;;;;;2.03;1.20;;;;;;;22.84;35.97;99869.75;5051807;28;20048;-67
2022/05/18 09:00:38;;;;;;;2.22;1.25;;;;;;;22.90;34.81;99866.44;5109641;28;20723;-67
2022/05/18 09:03:33;;;;;;;3.15;1.33;;;;;;;22.98;36.10;99865.66;5078006;28;20102;-69
2022/05/18 09:06:26;;;;;;;2.28;1.30;;;;;;;22.28;38.24;99878.88;5105859;28;20036;-69
2022/05/18 09:12:19;;;;;;;4.68;1.65;;;;;;;23.17;38.16;99866.41;5088547;28;20346;-69
2022/05/18 09:15:07;;;;;;;1.90;1.20;;;;;;;23.20;34.23;99858.91;5095065;28;20040;-67
2022/05/18 09:18:06;;;;;;;3.58;1.10;;;;;;;22.27;35.97;99847.84;5092852;28;20536;-68
2022/05/18 09:20:56;;;;;;;1.77;1.10;;;;;;;23.08;34.49;99865.50;5100596;28;20039;-67
2022/05/18 09:24:12;;;;;;;3.28;1.13;;;;;;;23.96;34.63;99857.25;5095986;28;20096;-67
2022/05/18 09:27:26;;;;;;;2.08;0.90;;;;;;;23.52;31.82;99855.69;5102666;28;20040;-67
2022/05/18 09:30:40;;;;;;;2.17;0.85;;;;;;;24.10;31.46;99858.41;5087098;28;20493;-68
2022/05/18 09:33:43;;;;;;;1.67;0.80;;;;;;;23.78;29.64;99858.22;5086647;28;20044;-65
2022/05/18 09:36:44;;;;;;;2.20;0.95;;;;;;;24.00;30.32;99863.94;5101691;28;20376;-66
2022/05/18 09:39:40;;;;;;;1.67;0.90;;;;;;;24.72;31.01;99866.91;5107490;28;20039;-68
2022/05/18 09:42:32;;;;;;;2.20;1.00;;;;;;;24.23;31.86;99871.31;5099436;28;20044;-68
2022/05/18 09:45:22;;;;;;;2.75;1.17;;;;;;;24.07;31.95;99864.91;5091496;28;20043;-63
2022/05/18 09:48:12;;;;;;;2.17;0.80;;;;;;;24.65;29.46;99868.56;5092998;28;20067;-71
2022/05/18 09:50:57;;;;;;;2.35;0.75;;;;;;;24.04;29.38;99867.13;5090511;28;20036;-70
2022/05/18 09:53:42;;;;;;;0.80;0.40;;;;;;;24.60;25.24;99869.09;5090776;28;20185;-70
2022/05/18 09:56:55;;;;;;;0.68;0.50;;;;;;;24.52;24.78;99872.63;5089465;28;20039;-69
2022/05/18 09:59:45;;;;;;;0.70;0.30;;;;;;;23.98;25.21;99863.25;5091208;28;20043;-69
2022/05/18 10:08:46;;;;;;;2.97;0.77;;;;;;;24.02;23.75;99858.41;5074392;28;20040;-69
2022/05/18 10:11:34;;;;;;;1.00;0.20;;;;;;;24.65;24.41;99869.41;5090119;28;20047;-70
2022/05/18 10:14:32;;;;;;;2.22;0.45;;;;;;;24.37;23.04;99856.41;5091183;28;20036;-70
2022/05/18 10:17:21;;;;;;;2.13;1.05;;;;;;;24.78;21.11;99866.19;5075020;28;20450;-68
2022/05/18 10:20:19;;;;;;;4.25;0.80;;;;;;;23.65;22.35;99853.34;5102741;28;20041;-70
2022/05/18 10:23:25;;;;;;;6.53;0.80;;;;;;;24.53;22.39;99852.84;5085910;28;20038;-69
2022/05/18 10:26:23;;;;;;;2.22;0.52;;;;;;;24.89;21.13;99861.50;5089847;28;20036;-70
2022/05/18 10:29:28;;;;;;;2.70;0.60;;;;;;;24.78;23.63;99854.63;5088634;28;20050;-70
2022/05/18 10:32:23;;;;;;;1.23;0.43;;;;;;;24.00;19.88;99853.22;5089825;28;20036;-69
2022/05/18 10:35:08;;;;;;;2.03;0.40;;;;;;;24.07;19.10;99861.44;5092748;28;20040;-70
2022/05/18 10:37:53;;;;;;;2.47;0.30;;;;;;;24.72;21.08;99874.94;5091709;28;20043;-64
2022/05/18 10:40:37;;;;;;;1.33;0.35;;;;;;;24.41;20.86;99871.16;5093868;28;20039;-72
2022/05/18 10:43:44;;;;;;;1.80;0.30;;;;;;;24.81;20.66;99860.50;5091149;28;20068;-71
2022/05/18 10:46:40;;;;;;;0.98;0.38;;;;;;;24.54;17.52;99854.56;5100645;28;20173;-71
2022/05/18 10:49:34;;;;;;;2.70;0.30;;;;;;;24.39;17.16;99848.19;5087503;28;20036;-74
2022/05/18 10:52:28;;;;;;;0.70;0.30;;;;;;;24.82;17.78;99859.50;5091546;28;20105;-72
2022/05/18 10:55:17;;;;;;;1.02;0.30;;;;;;;25.48;17.28;99841.44;5102717;28;20079;-71
2022/05/18 10:58:21;;;;;;;1.10;0.35;;;;;;;26.31;16.91;99856.94;5083033;28;20044;-72
2022/05/18 11:01:26;;;;;;;0.93;0.20;;;;;;;25.86;15.67;99850.63;5090131;28;20036;-74
2022/05/18 11:04:29;;;;;;;2.88;0.57;;;;;;;26.16;16.83;99851.53;5093480;28;20096;-73
2022/05/18 11:07:14;;;;;;;2.72;0.85;;;;;;;25.63;17.19;99846.09;5093433;28;20101;-74
2022/05/18 11:10:00;;;;;;;5.65;1.02;;;;;;;24.47;19.41;99838.31;5087695;28;20040;-71
2022/05/18 11:12:48;;;;;;;1.13;0.40;;;;;;;24.45;18.99;99836.81;5092053;28;20043;-70
2022/05/18 11:15:53;;;;;;;1.05;0.60;;;;;;;25.40;18.48;99833.47;5078829;28;20047;-71
2022/05/18 11:18:45;;;;;;;1.38;0.50;;;;;;;25.39;19.39;99831.81;5082110;28;20040;-70
2022/05/18 11:21:47;;;;;;;4.85;0.70;;;;;;;26.30;18.54;99841.00;5092153;28;20043;-71
2022/05/18 11:24:47;;;;;;;1.08;0.50;;;;;;;24.42;18.84;99829.13;5086364;28;20028;-70
2022/05/18 11:28:07;;;;;;;2.15;0.55;;;;;;;25.41;21.01;99816.38;5093435;28;20109;-73
2022/05/18 11:31:09;;;;;;;1.48;0.75;;;;;;;25.26;19.84;99827.84;5093071;28;20094;-70
2022/05/18 11:34:07;;;;;;;4.07;0.65;;;;;;;25.43;20.43;99830.41;5092622;28;20042;-74
2022/05/18 11:37:12;;;;;;;2.80;0.70;;;;;;;25.88;20.06;99814.56;5077953;28;20097;-74
2022/05/18 11:40:31;;;;;;;1.25;0.47;;;;;;;26.21;19.77;99824.16;5091180;28;20511;-71
2022/05/18 11:43:33;;;;;;;7.80;0.85;;;;;;;25.89;21.83;99836.84;5093394;28;20040;-74
2022/05/18 11:46:33;;;;;;;1.80;0.90;;;;;;;23.58;22.32;99807.75;5091012;28;20036;-72
2022/05/18 11:49:27;;;;;;;2.77;0.70;;;;;;;24.17;22.04;99826.50;5081259;28;20047;-71
2022/05/18 11:52:16;;;;;;;1.73;0.68;;;;;;;25.19;21.69;99819.69;5089732;28;20135;-66
2022/05/18 11:55:14;;;;;;;2.35;0.65;;;;;;;25.41;20.02;99814.50;5093297;28;20036;-79
2022/05/18 11:59:02;;;;;;;2.63;0.55;;;;;;;25.44;20.17;99818.69;5091120;28;20043;-77
2022/05/18 12:02:13;;;;;;;2.95;0.50;;;;;;;25.74;20.47;99820.72;5075328;28;20055;-78
2022/05/18 12:05:19;;;;;;;1.52;0.55;;;;;;;25.01;21.00;99825.28;5089618;28;20169;-72
2022/05/18 12:08:30;;;;;;;1.58;0.50;;;;;;;25.63;22.04;99822.78;5066237;28;20040;-78
2022/05/18 12:11:23;;;;;;;1.73;0.60;;;;;;;25.55;22.02;99815.59;5113480;28;20044;-76
2022/05/18 12:14:27;;;;;;;3.15;0.70;;;;;;;24.61;22.31;99825.25;5102592;28;20040;-75
2022/05/18 12:17:12;;;;;;;2.75;0.47;;;;;;;24.82;22.62;99827.34;5093155;28;20040;-74
2022/05/18 12:20:33;;;;;;;4.40;0.77;;;;;;;26.39;22.25;99823.81;5094049;28;20032;-74
2022/05/18 12:23:22;;;;;;;2.13;0.80;;;;;;;24.94;22.03;99824.31;5068753;28;20048;-76
2022/05/18 12:26:07;;;;;;;2.88;0.68;;;;;;;25.91;21.16;99827.59;5095968;28;20058;-76
2022/05/18 12:28:52;;;;;;;1.95;0.60;;;;;;;25.41;20.02;99824.41;5078255;28;20447;-73
2022/05/18 12:31:40;;;;;;;1.45;0.40;;;;;;;27.37;19.57;99816.59;5111674;28;20047;-77
2022/05/18 12:34:43;;;;;;;2.67;0.60;;;;;;;26.66;18.29;99823.38;5112270;28;20055;-76
2022/05/18 12:37:32;;;;;;;1.65;0.73;;;;;;;26.25;16.95;99816.56;5097305;28;20055;-77
2022/05/18 12:40:19;;;;;;;1.83;0.80;;;;;;;26.07;17.71;99818.56;5100850;28;20040;-74
2022/05/18 12:43:14;;;;;;;2.75;0.77;;;;;;;26.90;18.84;99822.25;5107828;28;20028;-73
2022/05/18 12:46:15;;;;;;;2.28;0.60;;;;;;;25.96;17.93;99824.38;5093124;28;20055;-77
2022/05/18 12:49:10;;;;;;;1.40;0.57;;;;;;;26.02;18.70;99817.44;5095236;28;20040;-76
2022/05/18 12:52:02;;;;;;;4.03;0.70;;;;;;;27.35;18.49;99818.69;5096470;28;20040;-75
2022/05/18 12:54:53;;;;;;;3.53;0.50;;;;;;;25.54;20.29;99805.06;5093809;28;20044;-77
2022/05/18 12:57:41;;;;;;;1.73;0.70;;;;;;;25.88;19.47;99814.56;5094506;28;20036;-74
2022/05/18 13:00:26;;;;;;;4.82;0.85;;;;;;;25.75;20.19;99819.69;5093432;28;20036;-76
2022/05/18 13:03:11;;;;;;;2.72;0.77;;;;;;;24.95;19.79;99820.63;5079112;28;20331;-77
2022/05/18 13:05:59;;;;;;;2.13;0.70;;;;;;;25.14;20.15;99813.16;5079370;28;20036;-77
2022/05/18 13:08:58;;;;;;;1.45;0.60;;;;;;;25.24;20.20;99818.31;5079202;28;20445;-77
2022/05/18 13:11:42;;;;;;;3.38;0.90;;;;;;;25.74;19.99;99808.09;5093566;28;20036;-78
2022/05/18 13:14:37;;;;;;;2.75;0.70;;;;;;;25.29;19.58;99813.25;5094034;28;20047;-76
2022/05/18 13:17:39;;;;;;;1.10;0.80;;;;;;;25.26;20.20;99821.66;5093144;28;20036;-76
2022/05/18 13:20:55;;;;;;;2.88;0.80;;;;;;;25.69;20.11;99815.84;5094270;28;20035;-78
2022/05/18 13:23:51;;;;;;;3.17;0.90;;;;;;;25.56;19.93;99819.09;5093958;28;20118;-78
2022/05/18 13:26:43;;;;;;;2.35;0.80;;;;;;;24.65;20.58;99817.69;5088171;28;20028;-76
2022/05/18 13:29:31;;;;;;;2.30;0.90;;;;;;;24.97;20.37;99818.63;5073196;28;20043;-74
2022/05/18 13:32:18;;;;;;;1.70;0.82;;;;;;;24.60;20.52;99815.53;5092359;28;20356;-74
2022/05/18 13:35:06;;;;;;;3.03;0.90;;;;;;;23.93;21.86;99812.09;5078130;28;20361;-77